createdAt,value
2019-02-27T00:02:33.746Z,3.55
2019-02-27T00:06:35.650Z,3.46
2019-02-27T00:10:39.242Z,3.34
2019-02-27T00:14:41.135Z,3.28
2019-02-27T00:18:43.107Z,3.18
2019-02-27T00:22:45.012Z,3.12
2019-02-27T00:26:46.913Z,3.08
2019-02-27T00:30:48.800Z,2.97
2019-02-27T00:34:50.714Z,2.96
2019-02-27T00:38:52.604Z,2.89
2019-02-27T00:42:55.000Z,2.79
2019-02-27T00:46:56.908Z,2.70
2019-02-27T00:50:58.820Z,2.60
2019-02-27T00:55:04.337Z,2.58
2019-02-27T00:59:04.472Z,2.50
2019-02-27T01:03:06.396Z,2.43
2019-02-27T01:07:08.295Z,2.35
2019-02-27T01:11:10.193Z,2.37
2019-02-27T01:15:14.593Z,2.30
2019-02-27T01:19:17.721Z,2.22
2019-02-27T01:23:19.621Z,2.10
2019-02-27T01:27:21.530Z,1.97
2019-02-27T01:31:24.064Z,1.96
2019-02-27T01:35:26.541Z,1.86
2019-02-27T01:39:28.915Z,1.79
2019-02-27T01:43:30.822Z,1.78
2019-02-27T01:47:36.122Z,1.72
2019-02-27T01:51:37.527Z,1.68
2019-02-27T01:55:42.549Z,1.66
2019-02-27T01:59:44.435Z,1.63
2019-02-27T02:03:47.475Z,1.57
2019-02-27T02:07:51.057Z,1.55
2019-02-27T02:11:52.946Z,1.50
2019-02-27T02:16:10.966Z,1.49
2019-02-27T02:20:35.760Z,1.47
2019-02-27T02:25:15.742Z,1.40
2019-02-27T02:29:53.175Z,1.37
2019-02-27T02:34:33.220Z,1.29
2019-02-27T02:39:25.145Z,1.22
2019-02-27T02:43:41.500Z,1.15
2019-02-27T02:47:55.482Z,1.12
2019-02-27T02:52:07.784Z,1.07
2019-02-27T02:56:31.147Z,1.06
2019-02-27T03:00:58.471Z,0.66
2019-02-27T03:05:23.594Z,0.98
2019-02-27T03:09:58.374Z,0.97
2019-02-27T03:14:19.186Z,0.89
2019-02-27T03:18:29.678Z,0.83
2019-02-27T03:23:03.537Z,0.81
2019-02-27T03:27:21.623Z,0.77
2019-02-27T03:31:28.127Z,0.70
2019-02-27T03:36:04.669Z,0.68
2019-02-27T03:40:56.505Z,0.65
2019-02-27T03:45:11.970Z,0.58
2019-02-27T03:49:40.710Z,0.59
2019-02-27T03:54:20.920Z,0.47
2019-02-27T03:58:55.210Z,0.42
2019-02-27T04:03:36.485Z,0.38
2019-02-27T04:08:07.292Z,0.38
2019-02-27T04:12:07.028Z,0.36
2019-02-27T04:16:08.933Z,0.31
2019-02-27T04:20:14.675Z,0.29
2019-02-27T04:24:14.508Z,0.28
2019-02-27T04:28:16.409Z,0.26
2019-02-27T04:32:18.301Z,0.18
2019-02-27T04:36:20.232Z,0.16
2019-02-27T04:40:23.104Z,0.10
2019-02-27T04:44:24.988Z,0.12
2019-02-27T04:48:27.041Z,0.11
2019-02-27T04:52:30.474Z,0.11
2019-02-27T04:56:32.373Z,0.07
2019-02-27T05:00:34.330Z,-0.02
2019-02-27T05:04:36.225Z,-0.06
2019-02-27T05:08:38.138Z,-0.49
2019-02-27T05:12:40.068Z,-0.11
2019-02-27T05:16:41.972Z,-0.09
2019-02-27T05:20:45.708Z,-0.15
2019-02-27T05:24:47.681Z,-0.15
2019-02-27T05:28:49.665Z,-0.14
2019-02-27T05:32:51.582Z,-0.21
2019-02-27T05:36:53.491Z,-0.26
2019-02-27T05:40:59.868Z,-0.30
2019-02-27T05:44:59.041Z,-0.32
2019-02-27T05:49:02.020Z,-0.31
2019-02-27T05:53:03.946Z,-0.36
2019-02-27T05:57:05.836Z,-0.40
2019-02-27T06:01:07.757Z,-0.43
2019-02-27T06:05:09.749Z,-0.39
2019-02-27T06:09:11.732Z,-0.46
2019-02-27T06:13:14.176Z,-0.51
2019-02-27T06:17:17.888Z,-0.54
2019-02-27T06:21:19.933Z,-0.51
2019-02-27T06:25:23.506Z,-0.53
2019-02-27T06:29:25.465Z,-0.50
2019-02-27T06:33:27.454Z,-0.50
2019-02-27T06:37:29.460Z,-0.46
2019-02-27T06:41:31.370Z,-0.48
2019-02-27T06:45:33.305Z,-0.43
2019-02-27T06:49:35.286Z,-0.43
2019-02-27T06:53:37.200Z,-0.40
2019-02-27T06:57:41.323Z,-0.38
2019-02-27T07:01:45.108Z,-0.33
2019-02-27T07:05:48.280Z,-0.25
2019-02-27T07:09:49.972Z,-0.14
2019-02-27T07:13:51.896Z,-0.06
2019-02-27T07:17:53.781Z,0.03
2019-02-27T07:21:55.718Z,0.16
2019-02-27T07:25:57.619Z,0.28
2019-02-27T07:29:59.542Z,0.44
2019-02-27T07:34:01.814Z,0.59
2019-02-27T07:38:03.705Z,0.72
2019-02-27T07:42:05.679Z,0.88
2019-02-27T07:46:07.631Z,1.05
2019-02-27T07:50:13.845Z,1.21
2019-02-27T07:54:15.747Z,1.36
2019-02-27T07:58:18.044Z,1.53
2019-02-27T08:02:20.062Z,1.71
2019-02-27T08:06:23.562Z,1.92
2019-02-27T08:10:27.296Z,2.15
2019-02-27T08:14:29.211Z,2.38
2019-02-27T08:18:36.630Z,2.76
2019-02-27T08:22:35.791Z,2.98
2019-02-27T08:26:37.706Z,3.22
2019-02-27T08:30:39.622Z,3.49
2019-02-27T08:34:41.538Z,3.75
2019-02-27T08:38:43.421Z,3.95
2019-02-27T08:42:45.322Z,4.36
2019-02-27T08:46:47.323Z,4.71
2019-02-27T08:50:49.232Z,5.06
2019-02-27T08:54:51.238Z,5.46
2019-02-27T08:58:53.122Z,5.76
2019-02-27T09:02:55.808Z,6.06
2019-02-27T09:07:02.173Z,6.49
2019-02-27T09:11:08.947Z,6.83
2019-02-27T09:15:13.716Z,7.10
2019-02-27T09:19:15.635Z,7.57
2019-02-27T09:23:18.362Z,7.95
2019-02-27T09:27:20.284Z,8.26
2019-02-27T09:31:22.202Z,8.49
2019-02-27T09:35:24.113Z,8.74
2019-02-27T09:39:30.691Z,9.12
2019-02-27T09:43:29.622Z,9.49
2019-02-27T09:47:31.608Z,9.98
2019-02-27T09:51:33.526Z,10.41
2019-02-27T09:55:35.603Z,10.87
2019-02-27T09:59:37.527Z,11.19
2019-02-27T10:03:39.467Z,11.47
2019-02-27T10:07:41.391Z,11.88
2019-02-27T10:11:43.317Z,12.38
2019-02-27T10:15:45.228Z,12.95
2019-02-27T10:19:47.211Z,13.50
2019-02-27T10:23:49.141Z,13.89
2019-02-27T10:27:51.138Z,14.24
2019-02-27T10:31:53.059Z,14.45
2019-02-27T10:35:55.038Z,14.88
2019-02-27T10:39:56.960Z,15.09
2019-02-27T10:43:58.962Z,15.55
2019-02-27T10:48:01.753Z,15.98
2019-02-27T10:52:03.722Z,16.16
2019-02-27T10:56:05.641Z,15.86
2019-02-27T11:00:25.089Z,16.08
2019-02-27T11:04:27.848Z,16.49
2019-02-27T11:08:29.754Z,16.93
2019-02-27T11:12:31.878Z,17.19
2019-02-27T11:16:33.785Z,17.27
2019-02-27T11:20:35.769Z,17.41
2019-02-27T11:24:37.672Z,17.43
2019-02-27T11:28:39.589Z,17.57
2019-02-27T11:32:41.597Z,17.31
2019-02-27T11:36:44.588Z,17.41
2019-02-27T11:40:46.488Z,17.85
2019-02-27T11:44:49.750Z,17.83
2019-02-27T11:48:52.218Z,17.92
2019-02-27T11:52:54.431Z,17.66
2019-02-27T11:56:57.041Z,17.70
2019-02-27T12:00:59.028Z,17.68
2019-02-27T12:05:01.482Z,17.78
2019-02-27T12:09:03.385Z,17.84
2019-02-27T12:13:06.733Z,17.83
2019-02-27T12:17:08.628Z,18.10
2019-02-27T12:21:10.540Z,18.08
2019-02-27T12:25:16.189Z,18.16
2019-02-27T12:29:18.385Z,18.50
2019-02-27T12:33:20.290Z,18.75
2019-02-27T12:37:28.025Z,19.07
2019-02-27T12:41:25.981Z,19.19
2019-02-27T12:45:31.755Z,19.02
2019-02-27T12:49:33.729Z,19.26
2019-02-27T12:53:35.749Z,19.34
2019-02-27T12:57:37.732Z,19.46
2019-02-27T13:01:39.815Z,19.26
2019-02-27T13:05:41.767Z,19.17
2019-02-27T13:09:43.702Z,19.61
2019-02-27T13:13:45.600Z,19.78
2019-02-27T13:17:47.554Z,19.77
2019-02-27T13:21:49.487Z,19.85
2019-02-27T13:26:08.231Z,19.79
2019-02-27T13:30:23.159Z,19.91
2019-02-27T13:34:25.085Z,20.15
2019-02-27T13:38:26.985Z,20.48
2019-02-27T13:42:28.908Z,20.51
2019-02-27T13:46:30.823Z,20.50
2019-02-27T13:50:32.926Z,20.61
2019-02-27T13:54:38.019Z,20.55
2019-02-27T13:58:38.530Z,20.57
2019-02-27T14:02:40.427Z,21.08
2019-02-27T14:06:43.571Z,21.35
2019-02-27T14:10:45.962Z,21.29
2019-02-27T14:14:50.267Z,20.89
2019-02-27T14:18:54.231Z,21.08
2019-02-27T14:22:56.161Z,21.37
2019-02-27T14:26:58.078Z,21.43
2019-02-27T14:30:59.990Z,20.98
2019-02-27T14:35:02.147Z,21.38
2019-02-27T14:39:05.445Z,21.63
2019-02-27T14:43:08.941Z,21.60
2019-02-27T14:47:10.861Z,21.45
2019-02-27T14:51:12.781Z,21.21
2019-02-27T14:55:16.805Z,20.93
2019-02-27T14:59:18.705Z,20.72
2019-02-27T15:03:20.621Z,20.70
2019-02-27T15:07:23.513Z,20.39
2019-02-27T15:11:25.425Z,19.87
2019-02-27T15:15:32.581Z,19.76
2019-02-27T15:19:35.501Z,19.68
2019-02-27T15:23:37.525Z,19.37
2019-02-27T15:27:46.402Z,19.30
2019-02-27T15:31:48.373Z,18.92
2019-02-27T15:35:55.118Z,18.59
2019-02-27T15:39:55.025Z,18.14
2019-02-27T15:44:00.466Z,17.83
2019-02-27T15:48:06.473Z,17.26
2019-02-27T15:52:06.993Z,17.03
2019-02-27T15:56:09.944Z,16.87
2019-02-27T16:00:24.296Z,16.33
2019-02-27T16:04:26.308Z,16.03
2019-02-27T16:08:28.273Z,15.66
2019-02-27T16:12:30.209Z,15.27
2019-02-27T16:16:32.131Z,14.92
2019-02-27T16:20:34.032Z,14.59
2019-02-27T16:24:36.011Z,14.29
2019-02-27T16:28:37.964Z,13.94
2019-02-27T16:32:39.940Z,13.62
2019-02-27T16:36:41.860Z,13.22
2019-02-27T16:40:43.790Z,12.89
2019-02-27T16:44:45.719Z,12.56
2019-02-27T16:48:48.589Z,12.23
2019-02-27T16:52:50.533Z,11.90
2019-02-27T16:56:52.515Z,11.60
2019-02-27T17:00:55.497Z,11.39
2019-02-27T17:04:57.543Z,11.18
2019-02-27T17:08:59.479Z,11.03
2019-02-27T17:13:01.666Z,10.86
2019-02-27T17:17:03.559Z,10.65
2019-02-27T17:21:05.549Z,10.46
2019-02-27T17:25:10.954Z,10.27
2019-02-27T17:29:13.862Z,10.11
2019-02-27T17:33:15.921Z,9.92
2019-02-27T17:37:18.504Z,9.73
2019-02-27T17:41:20.423Z,9.54
2019-02-27T17:45:28.456Z,9.31
2019-02-27T17:49:30.346Z,9.11
2019-02-27T17:53:32.250Z,8.98
2019-02-27T17:57:34.158Z,8.85
2019-02-27T18:01:36.045Z,8.68
2019-02-27T18:05:38.008Z,8.51
2019-02-27T18:09:40.499Z,8.32
2019-02-27T18:13:42.491Z,8.18
2019-02-27T18:17:44.450Z,7.98
2019-02-27T18:21:47.303Z,7.88
2019-02-27T18:25:49.308Z,7.71
2019-02-27T18:29:51.206Z,7.50
2019-02-27T18:33:53.123Z,7.33
2019-02-27T18:37:55.049Z,7.17
2019-02-27T18:41:57.102Z,6.98
2019-02-27T18:45:58.984Z,6.84
2019-02-27T18:50:01.573Z,6.78
2019-02-27T18:54:04.517Z,6.62
2019-02-27T18:58:06.523Z,6.50
2019-02-27T19:02:08.586Z,6.38
2019-02-27T19:06:12.077Z,6.28
2019-02-27T19:10:16.586Z,6.18
2019-02-27T19:14:18.733Z,6.06
2019-02-27T19:18:20.686Z,5.94
2019-02-27T19:22:22.828Z,5.86
2019-02-27T19:26:24.857Z,5.76
2019-02-27T19:30:27.591Z,5.68
2019-02-27T19:34:29.519Z,5.61
2019-02-27T19:38:31.590Z,5.46
2019-02-27T19:42:33.656Z,5.41
2019-02-27T19:46:35.535Z,5.24
2019-02-27T19:50:37.504Z,5.17
2019-02-27T19:54:39.476Z,5.09
2019-02-27T19:58:41.377Z,4.97
2019-02-27T20:02:43.528Z,4.82
2019-02-27T20:06:45.449Z,4.74
2019-02-27T20:10:47.567Z,4.67
2019-02-27T20:14:49.473Z,4.59
2019-02-27T20:18:54.780Z,4.53
2019-02-27T20:22:55.859Z,4.50
2019-02-27T20:26:57.827Z,4.41
2019-02-27T20:30:59.751Z,4.35
2019-02-27T20:35:01.811Z,4.26
2019-02-27T20:39:04.872Z,4.16
2019-02-27T20:43:07.451Z,4.09
2019-02-27T20:47:09.355Z,3.99
2019-02-27T20:51:11.259Z,3.88
2019-02-27T20:55:13.228Z,3.76
2019-02-27T20:59:15.123Z,3.67
2019-02-27T21:03:17.111Z,3.60
2019-02-27T21:07:22.316Z,3.49
2019-02-27T21:11:22.671Z,3.47
2019-02-27T21:15:25.044Z,3.45
2019-02-27T21:19:27.011Z,3.38
2019-02-27T21:23:31.905Z,3.34
2019-02-27T21:27:33.135Z,3.22
2019-02-27T21:31:35.642Z,3.17
2019-02-27T21:35:37.516Z,3.08
2019-02-27T21:39:39.418Z,3.06
2019-02-27T21:43:41.327Z,3.03
2019-02-27T21:47:44.462Z,2.95
2019-02-27T21:51:48.202Z,2.73
2019-02-27T21:55:51.568Z,2.67
2019-02-27T21:59:53.497Z,2.63
2019-02-27T22:03:55.400Z,2.62
2019-02-27T22:07:57.324Z,2.58
2019-02-27T22:12:01.143Z,2.53
2019-02-27T22:16:02.829Z,2.47
2019-02-27T22:20:05.276Z,2.38
2019-02-27T22:24:07.381Z,2.33
2019-02-27T22:28:19.986Z,2.22
2019-02-27T22:32:22.671Z,2.18
2019-02-27T22:36:24.573Z,2.19
2019-02-27T22:40:26.519Z,2.06
2019-02-27T22:44:29.129Z,1.98
2019-02-27T22:48:31.862Z,1.94
2019-02-27T22:52:34.785Z,1.85
2019-02-27T22:56:36.692Z,1.83
2019-02-27T23:00:51.680Z,1.77
2019-02-27T23:04:55.351Z,1.74
2019-02-27T23:08:57.392Z,1.68
2019-02-27T23:12:59.367Z,1.66
2019-02-27T23:17:01.707Z,1.59
2019-02-27T23:21:03.783Z,1.60
2019-02-27T23:25:07.491Z,1.52
2019-02-27T23:29:23.213Z,1.49
2019-02-27T23:33:25.145Z,1.42
2019-02-27T23:37:29.541Z,1.31
2019-02-27T23:41:30.646Z,1.21
2019-02-27T23:45:32.546Z,1.15
2019-02-27T23:49:34.427Z,1.08
2019-02-27T23:53:36.331Z,1.09
2019-02-27T23:57:38.230Z,1.04
